createdAt,value
2022-11-19T00:04:28.738Z,99568.63
2022-11-19T00:09:50.324Z,99576.41
2022-11-19T00:15:11.896Z,99566.16
2022-11-19T00:20:35.061Z,99546.44
2022-11-19T00:25:56.490Z,99576.25
2022-11-19T00:31:19.856Z,99570.25
2022-11-19T00:36:41.127Z,99577.97
2022-11-19T00:42:02.763Z,99585.72
2022-11-19T00:47:24.407Z,99580.63
2022-11-19T00:52:46.068Z,99567.81
2022-11-19T00:58:08.502Z,99567.63
2022-11-19T01:03:30.384Z,99559.00
2022-11-19T01:08:53.456Z,99551.25
2022-11-19T01:14:14.733Z,99558.88
2022-11-19T01:19:36.320Z,99547.03
2022-11-19T01:24:57.863Z,99534.91
2022-11-19T01:30:19.286Z,99535.56
2022-11-19T01:35:40.911Z,99537.28
2022-11-19T01:41:02.654Z,99550.94
2022-11-19T01:46:26.400Z,99543.19
2022-11-19T01:51:55.114Z,99543.97
2022-11-19T01:57:18.319Z,99549.56
2022-11-19T02:02:39.873Z,99541.50
2022-11-19T02:08:08.467Z,99567.78
2022-11-19T02:13:45.789Z,99580.00
2022-11-19T02:19:26.057Z,99571.75
2022-11-19T02:24:55.962Z,99558.94
2022-11-19T02:30:20.522Z,99557.03
2022-11-19T02:36:33.755Z,99559.47
2022-11-19T02:42:06.052Z,99588.59
2022-11-19T02:47:36.774Z,99595.00
2022-11-19T02:52:58.279Z,99600.09
2022-11-19T02:58:41.275Z,99576.88
2022-11-19T03:04:21.112Z,99579.41
2022-11-19T03:09:52.955Z,99576.81
2022-11-19T03:16:07.356Z,99605.06
2022-11-19T03:21:44.383Z,99594.19
2022-11-19T03:27:23.324Z,99594.31
2022-11-19T03:32:55.741Z,99602.69
2022-11-19T03:38:24.616Z,99651.44
2022-11-19T03:43:55.723Z,99638.69
2022-11-19T03:49:22.221Z,99624.84
2022-11-19T03:54:43.755Z,99642.84
2022-11-19T04:00:05.922Z,99617.28
2022-11-19T04:05:33.876Z,99630.91
2022-11-19T04:10:55.425Z,99638.63
2022-11-19T04:16:18.216Z,99641.16
2022-11-19T04:21:40.766Z,99641.97
2022-11-19T04:27:02.285Z,99641.06
2022-11-19T04:32:24.023Z,99646.91
2022-11-19T04:37:47.101Z,99657.97
2022-11-19T04:43:08.593Z,99640.00
2022-11-19T04:48:29.959Z,99645.03
2022-11-19T04:53:52.256Z,99636.41
2022-11-19T04:59:13.751Z,99646.63
2022-11-19T05:04:35.191Z,99649.22
2022-11-19T05:09:56.638Z,99656.16
2022-11-19T05:15:18.448Z,99639.97
2022-11-19T05:20:43.361Z,99635.78
2022-11-19T05:26:04.626Z,99638.41
2022-11-19T05:31:25.922Z,99622.16
2022-11-19T05:36:47.733Z,99620.50
2022-11-19T05:42:09.189Z,99615.63
2022-11-19T05:47:31.469Z,99597.56
2022-11-19T05:52:54.253Z,99594.81
2022-11-19T05:58:15.696Z,99634.22
2022-11-19T06:03:37.119Z,99609.13
2022-11-19T06:08:58.627Z,99574.47
2022-11-19T06:14:22.853Z,99598.66
2022-11-19T06:19:44.473Z,99580.97
2022-11-19T06:25:07.955Z,99601.72
2022-11-19T06:30:29.604Z,99607.84
2022-11-19T06:35:51.169Z,99601.09
2022-11-19T06:41:13.040Z,99632.56
2022-11-19T06:46:34.569Z,99664.97
2022-11-19T06:51:55.870Z,99661.34
2022-11-19T06:57:19.422Z,99630.59
2022-11-19T07:02:42.246Z,99585.25
2022-11-19T07:08:04.488Z,99600.28
2022-11-19T07:13:45.967Z,99670.16
2022-11-19T07:19:09.760Z,99666.72
2022-11-19T07:24:32.719Z,99648.59
2022-11-19T07:29:54.336Z,99659.38
2022-11-19T07:35:16.147Z,99624.13
2022-11-19T07:40:37.771Z,99605.66
2022-11-19T07:46:05.995Z,99599.84
2022-11-19T07:51:27.584Z,99558.19
2022-11-19T07:56:49.765Z,99567.63
2022-11-19T08:02:12.620Z,99555.94
2022-11-19T08:07:34.319Z,99566.78
2022-11-19T08:13:03.425Z,99542.00
2022-11-19T08:18:29.886Z,99584.59
2022-11-19T08:23:52.500Z,99538.78
2022-11-19T08:29:16.970Z,99508.34
2022-11-19T08:34:38.559Z,99500.59
2022-11-19T08:40:00.180Z,99481.66
2022-11-19T08:45:22.645Z,99467.00
2022-11-19T08:50:43.949Z,99486.50
2022-11-19T08:56:06.637Z,99485.44
2022-11-19T09:01:28.137Z,99471.94
2022-11-19T09:06:49.805Z,99467.88
2022-11-19T09:12:11.335Z,99452.69
2022-11-19T09:17:35.956Z,99440.66
2022-11-19T09:22:57.575Z,99433.16
2022-11-19T09:28:19.024Z,99419.28
2022-11-19T09:33:43.549Z,99401.34
2022-11-19T09:39:06.317Z,99388.50
2022-11-19T09:44:33.867Z,99409.00
2022-11-19T09:50:21.249Z,99393.28
2022-11-19T09:55:46.029Z,99377.19
2022-11-19T10:01:12.506Z,99364.38
2022-11-19T10:06:51.882Z,99357.59
2022-11-19T10:12:41.962Z,99354.06
2022-11-19T10:18:10.916Z,99332.81
2022-11-19T10:23:38.747Z,99333.50
2022-11-19T10:29:01.904Z,99315.66
2022-11-19T10:34:29.720Z,99317.22
2022-11-19T10:40:14.420Z,99302.66
2022-11-19T10:45:35.911Z,99305.19
2022-11-19T10:50:59.863Z,99273.53
2022-11-19T10:56:25.815Z,99289.66
2022-11-19T11:01:51.531Z,99276.88
2022-11-19T11:07:13.476Z,99270.88
2022-11-19T11:12:56.750Z,99252.25
2022-11-19T11:18:19.771Z,99238.53
2022-11-19T11:23:52.389Z,99218.97
2022-11-19T11:29:13.775Z,99216.34
2022-11-19T11:34:44.231Z,99217.34
2022-11-19T11:40:07.479Z,99212.97
2022-11-19T11:45:37.359Z,99218.81
2022-11-19T11:50:58.963Z,99195.72
2022-11-19T11:56:22.057Z,99169.31
2022-11-19T12:01:43.407Z,99181.31
2022-11-19T12:07:23.572Z,99143.00
2022-11-19T12:12:45.206Z,99131.19
2022-11-19T12:18:32.363Z,99118.41
2022-11-19T12:24:28.344Z,99081.88
2022-11-19T12:30:37.009Z,99061.38
2022-11-19T12:36:10.505Z,99025.44
2022-11-19T12:41:59.702Z,99010.91
2022-11-19T12:47:33.039Z,99004.03
2022-11-19T12:53:12.917Z,99000.59
2022-11-19T12:58:37.205Z,98989.53
2022-11-19T13:04:11.812Z,98994.06
2022-11-19T13:09:48.768Z,98993.38
2022-11-19T13:15:21.218Z,98968.59
2022-11-19T13:21:04.298Z,98961.81
2022-11-19T13:26:32.085Z,98949.06
2022-11-19T13:32:00.888Z,98950.63
2022-11-19T13:37:37.526Z,98976.44
2022-11-19T13:43:31.612Z,98996.97
2022-11-19T13:49:34.232Z,98974.78
2022-11-19T13:54:57.787Z,98973.91
2022-11-19T14:00:23.693Z,98967.88
2022-11-19T14:06:13.493Z,98955.91
2022-11-19T14:12:02.197Z,98935.47
2022-11-19T14:18:02.321Z,98910.72
2022-11-19T14:24:07.818Z,98928.66
2022-11-19T14:29:35.222Z,98944.03
2022-11-19T14:35:03.031Z,98919.25
2022-11-19T14:40:31.821Z,98921.84
2022-11-19T14:46:05.405Z,98926.09
2022-11-19T14:51:39.303Z,98898.78
2022-11-19T14:57:07.849Z,98899.66
2022-11-19T15:02:45.857Z,98881.72
2022-11-19T15:08:17.357Z,98881.72
2022-11-19T15:13:44.445Z,98892.03
2022-11-19T15:19:44.107Z,98880.06
2022-11-19T15:25:30.144Z,98890.31
2022-11-19T15:31:13.472Z,98915.09
2022-11-19T15:36:47.502Z,98889.44
2022-11-19T15:42:17.223Z,98892.03
2022-11-19T15:47:47.636Z,98892.84
2022-11-19T15:53:19.530Z,98876.56
2022-11-19T15:58:45.515Z,98874.00
2022-11-19T16:04:14.505Z,98878.28
2022-11-19T16:09:38.108Z,98874.88
2022-11-19T16:15:17.988Z,98858.63
2022-11-19T16:20:40.662Z,98841.47
2022-11-19T16:26:02.686Z,98840.63
2022-11-19T16:31:31.251Z,98833.75
2022-11-19T16:36:53.533Z,98839.75
2022-11-19T16:42:18.407Z,98826.06
2022-11-19T16:47:50.487Z,98813.22
2022-11-19T16:53:11.985Z,98800.38
2022-11-19T16:58:33.539Z,98818.34
2022-11-19T17:04:10.150Z,98815.78
2022-11-19T17:09:34.021Z,98810.66
2022-11-19T17:15:01.496Z,98811.50
2022-11-19T17:20:28.832Z,98822.63
2022-11-19T17:25:53.916Z,98832.06
2022-11-19T17:31:27.045Z,98826.91
2022-11-19T17:36:50.867Z,98831.16
2022-11-19T17:42:31.185Z,98834.59
2022-11-19T17:47:53.854Z,98837.13
2022-11-19T17:53:15.649Z,98838.88
2022-11-19T17:58:37.036Z,98842.31
2022-11-19T18:03:59.455Z,98856.84
2022-11-19T18:09:21.105Z,98861.97
2022-11-19T18:14:42.848Z,98855.97
2022-11-19T18:20:04.661Z,98877.38
2022-11-19T18:25:25.995Z,98888.50
2022-11-19T18:30:47.620Z,98885.91
2022-11-19T18:36:10.413Z,98879.06
2022-11-19T18:41:33.463Z,98910.75
2022-11-19T18:46:54.795Z,98907.31
2022-11-19T18:52:16.536Z,98927.03
2022-11-19T18:57:39.212Z,98917.56
2022-11-19T19:03:01.133Z,98918.44
2022-11-19T19:08:22.558Z,98927.84
2022-11-19T19:13:47.520Z,98927.84
2022-11-19T19:19:11.027Z,98939.84
2022-11-19T19:24:32.740Z,98937.25
2022-11-19T19:29:55.505Z,98937.25
2022-11-19T19:35:18.720Z,98920.97
2022-11-19T19:40:40.304Z,98933.81
2022-11-19T19:46:13.574Z,98939.78
2022-11-19T19:51:35.196Z,98929.47
2022-11-19T19:56:57.654Z,98934.59
2022-11-19T20:02:20.056Z,98935.47
2022-11-19T20:07:41.526Z,98950.88
2022-11-19T20:13:21.590Z,98972.28
2022-11-19T20:18:43.816Z,98991.97
2022-11-19T20:24:11.469Z,98997.09
2022-11-19T20:29:35.863Z,99027.09
2022-11-19T20:34:57.572Z,99040.81
2022-11-19T20:40:21.879Z,99043.38
2022-11-19T20:45:43.188Z,99047.63
2022-11-19T20:51:05.171Z,99054.47
2022-11-19T20:56:26.520Z,99055.25
2022-11-19T21:01:52.003Z,99070.72
2022-11-19T21:07:13.680Z,99082.72
2022-11-19T21:12:35.370Z,99093.88
2022-11-19T21:17:58.383Z,99093.00
2022-11-19T21:23:20.628Z,99098.16
2022-11-19T21:28:42.555Z,99113.59
2022-11-19T21:34:25.501Z,99114.50
2022-11-19T21:39:48.121Z,99124.75
2022-11-19T21:45:10.027Z,99138.50
2022-11-19T21:50:32.722Z,99159.06
2022-11-19T21:55:57.344Z,99163.38
2022-11-19T22:01:19.383Z,99170.25
2022-11-19T22:06:41.903Z,99179.66
2022-11-19T22:12:03.235Z,99180.50
2022-11-19T22:17:27.679Z,99199.38
2022-11-19T22:22:53.254Z,99208.81
2022-11-19T22:28:14.896Z,99205.38
2022-11-19T22:33:38.976Z,99225.09
2022-11-19T22:39:00.725Z,99227.69
2022-11-19T22:44:22.084Z,99241.41
2022-11-19T22:49:46.621Z,99247.41
2022-11-19T22:55:08.438Z,99258.56
2022-11-19T23:00:43.572Z,99263.69
2022-11-19T23:06:06.333Z,99272.28
2022-11-19T23:11:46.626Z,99267.13
2022-11-19T23:17:08.788Z,99302.28
2022-11-19T23:22:30.498Z,99306.53
2022-11-19T23:27:52.075Z,99328.78
2022-11-19T23:33:13.448Z,99339.09
2022-11-19T23:38:36.755Z,99350.25
2022-11-19T23:43:58.341Z,99365.69
2022-11-19T23:49:20.272Z,99374.25
2022-11-19T23:54:42.025Z,99377.69
